Time;durP1;ratioP1;P1;durP2;ratioP2;P2;SDS_P1;SDS_P2;PMS_P1;PMS_P2;Temp;Humidity;BMP_temperature;BMP_pressure;BME280_temperature;BME280_humidity;BME280_pressure;Samples;Min_cycle;Max_cycle;Signal;HPM_P1;HPM_P2
2023/06/21 00:01:49;;;;;;;;;;;;;;;;;;5040270;28;19928;-83
2023/06/21 00:04:17;;;;;;;;;;;;;;;;;;5042533;28;19926;-91
2023/06/21 00:06:45;;;;;;;;;;;;;;;;;;5035808;28;19930;-85
2023/06/21 00:09:13;;;;;;;;;;;;;;;;;;5030931;28;20436;-80
2023/06/21 00:11:41;;;;;;;;;;;;;;;;;;5041720;28;20817;-89
2023/06/21 00:14:09;;;;;;;;;;;;;;;;;;5034634;28;19928;-80
2023/06/21 00:16:36;;;;;;;;;;;;;;;;;;5036715;28;19929;-85
2023/06/21 00:19:04;;;;;;;;;;;;;;;;;;5036803;28;19929;-83
2023/06/21 00:21:32;;;;;;;;;;;;;;;;;;5052206;28;19930;-88
2023/06/21 00:24:02;;;;;;;;;;;;;;;;;;5032552;28;19925;-87
2023/06/21 00:26:30;;;;;;;;;;;;;;;;;;5042731;28;19933;-86
2023/06/21 00:28:58;;;;;;;;;;;;;;;;;;5024370;28;19936;-85
2023/06/21 00:31:26;;;;;;;;;;;;;;;;;;5034123;28;19936;-86
2023/06/21 00:33:54;;;;;;;;;;;;;;;;;;5035248;28;19932;-89
2023/06/21 00:36:22;;;;;;;;;;;;;;;;;;5033425;28;19925;-89
2023/06/21 00:38:49;;;;;;;;;;;;;;;;;;5026558;28;20262;-87
2023/06/21 00:41:17;;;;;;;;;;;;;;;;;;5031748;28;20620;-91
2023/06/21 00:43:46;;;;;;;;;;;;;;;;;;5030361;28;19936;-89
2023/06/21 00:46:15;;;;;;;;;;;;;;;;;;5064119;28;19928;-89
2023/06/21 00:48:44;;;;;;;;;;;;;;;;;;5058593;28;19944;-90
2023/06/21 00:51:13;;;;;;;;;;;;;;;;;;5058784;28;19944;-88
2023/06/21 00:53:45;;;;;;;;;;;;;;;;;;5049660;28;20633;-90
2023/06/21 00:56:16;;;;;;;;;;;;;;;;;;5053529;28;20400;-91
2023/06/21 00:58:44;;;;;;;;;;;;;;;;;;5050712;28;19925;-91
2023/06/21 01:01:11;;;;;;;;;;;;;;;;;;5047952;28;20285;-90
2023/06/21 01:03:39;;;;;;;;;;;;;;;;;;5049080;28;19952;-93
2023/06/21 01:06:07;;;;;;;;;;;;;;;;;;5058177;28;19932;-92
2023/06/21 01:08:36;;;;;;;;;;;;;;;;;;5044452;28;19933;-93
2023/06/21 01:11:04;;;;;;;;;;;;;;;;;;5051338;28;19925;-91
2023/06/21 01:13:31;;;;;;;;;;;;;;;;;;5042947;28;19924;-92
2023/06/21 01:15:59;;;;;;;;;;;;;;;;;;5046774;28;20605;-93
2023/06/21 01:18:27;;;;;;;;;;;;;;;;;;5043409;28;19959;-93
2023/06/21 01:20:57;;;;;;;;;;;;;;;;;;5033928;28;19932;-91
2023/06/21 01:23:24;;;;;;;;;;;;;;;;;;5058883;28;19933;-87
2023/06/21 01:25:52;;;;;;;;;;;;;;;;;;5058748;28;19936;-90
2023/06/21 01:28:20;;;;;;;;;;;;;;;;;;5048241;28;19929;-91
2023/06/21 01:30:48;;;;;;;;;;;;;;;;;;5061896;28;19947;-91
2023/06/21 01:33:27;;;;;;;;;;;;;;;;;;5053097;28;19929;-94
2023/06/21 01:35:57;;;;;;;;;;;;;;;;;;5041123;28;19936;-91
2023/06/21 01:38:26;;;;;;;;;;;;;;;;;;5048400;28;19933;-92
2023/06/21 01:40:53;;;;;;;;;;;;;;;;;;5047818;28;19939;-89
2023/06/21 01:43:21;;;;;;;;;;;;;;;;;;5040842;28;19925;-91
2023/06/21 01:45:48;;;;;;;;;;;;;;;;;;5059111;28;19925;-89
2023/06/21 01:48:16;;;;;;;;;;;;;;;;;;5044655;28;19936;-90
2023/06/21 01:50:44;;;;;;;;;;;;;;;;;;5045503;28;19925;-89
2023/06/21 01:53:13;;;;;;;;;;;;;;;;;;5043526;28;19925;-91
2023/06/21 01:55:41;;;;;;;;;;;;;;;;;;5040860;28;19925;-92
2023/06/21 01:58:11;;;;;;;;;;;;;;;;;;5036111;28;19944;-90
2023/06/21 02:00:39;;;;;;;;;;;;;;;;;;5039289;28;20340;-90
2023/06/21 02:03:07;;;;;;;;;;;;;;;;;;5037900;28;19928;-89
2023/06/21 02:05:35;;;;;;;;;;;;;;;;;;5043075;28;20290;-88
2023/06/21 02:08:04;;;;;;;;;;;;;;;;;;5048419;28;19932;-89
2023/06/21 02:10:32;;;;;;;;;;;;;;;;;;5045258;28;19926;-90
2023/06/21 02:13:00;;;;;;;;;;;;;;;;;;5047028;28;19932;-91
2023/06/21 02:15:27;;;;;;;;;;;;;;;;;;5042786;28;19929;-88
2023/06/21 02:17:55;;;;;;;;;;;;;;;;;;5041507;28;19932;-90
2023/06/21 02:20:22;;;;;;;;;;;;;;;;;;5040829;28;20313;-90
2023/06/21 02:22:50;;;;;;;;;;;;;;;;;;5041738;28;19924;-88
2023/06/21 02:25:18;;;;;;;;;;;;;;;;;;5041811;28;20312;-88
2023/06/21 02:27:45;;;;;;;;;;;;;;;;;;5046293;28;19929;-89
2023/06/21 02:30:13;;;;;;;;;;;;;;;;;;5045964;28;19933;-87
2023/06/21 02:32:40;;;;;;;;;;;;;;;;;;5046274;28;20411;-87
2023/06/21 02:35:10;;;;;;;;;;;;;;;;;;5048359;28;20292;-88
2023/06/21 02:37:38;;;;;;;;;;;;;;;;;;5042513;28;19936;-88
2023/06/21 02:40:09;;;;;;;;;;;;;;;;;;5045544;28;19932;-88
2023/06/21 02:42:37;;;;;;;;;;;;;;;;;;5062096;28;19944;-89
2023/06/21 02:45:04;;;;;;;;;;;;;;;;;;5040504;28;20289;-88
2023/06/21 02:47:37;;;;;;;;;;;;;;;;;;5063258;28;20156;-89
2023/06/21 02:50:04;;;;;;;;;;;;;;;;;;5040999;28;19929;-89
2023/06/21 02:52:32;;;;;;;;;;;;;;;;;;5044815;28;20562;-88
2023/06/21 02:55:05;;;;;;;;;;;;;;;;;;5048277;28;19936;-88
2023/06/21 02:57:37;;;;;;;;;;;;;;;;;;5043758;28;20404;-88
2023/06/21 03:00:17;;;;;;;;;;;;;;;;;;5040521;28;19925;-88
2023/06/21 03:02:45;;;;;;;;;;;;;;;;;;5058970;28;19932;-88
2023/06/21 03:05:17;;;;;;;;;;;;;;;;;;5045469;28;19929;-88
2023/06/21 03:07:45;;;;;;;;;;;;;;;;;;5040280;28;19933;-88
2023/06/21 03:10:13;;;;;;;;;;;;;;;;;;5042300;28;19925;-89
2023/06/21 03:12:45;;;;;;;;;;;;;;;;;;5040971;28;19929;-89
2023/06/21 03:15:17;;;;;;;;;;;;;;;;;;5044499;28;19952;-90
2023/06/21 03:17:45;;;;;;;;;;;;;;;;;;5046005;28;20388;-91
2023/06/21 03:20:14;;;;;;;;;;;;;;;;;;5061415;28;19925;-88
2023/06/21 03:22:47;;;;;;;;;;;;;;;;;;5045570;28;20953;-88
2023/06/21 03:25:15;;;;;;;;;;;;;;;;;;5066753;28;20007;-90
2023/06/21 03:27:48;;;;;;;;;;;;;;;;;;5035343;28;19936;-83
2023/06/21 03:30:21;;;;;;;;;;;;;;;;;;5054037;28;19936;-87
2023/06/21 03:32:48;;;;;;;;;;;;;;;;;;5019434;28;20312;-88
2023/06/21 03:35:19;;;;;;;;;;;;;;;;;;5042800;28;19929;-86
2023/06/21 03:37:50;;;;;;;;;;;;;;;;;;5028513;28;19929;-88
2023/06/21 03:40:22;;;;;;;;;;;;;;;;;;5020957;28;19929;-87
2023/06/21 03:42:50;;;;;;;;;;;;;;;;;;5028245;28;20309;-86
2023/06/21 03:45:18;;;;;;;;;;;;;;;;;;5038896;28;19929;-87
2023/06/21 03:47:55;;;;;;;;;;;;;;;;;;5020583;28;19940;-87
2023/06/21 03:50:22;;;;;;;;;;;;;;;;;;5030229;28;19928;-86
2023/06/21 03:52:50;;;;;;;;;;;;;;;;;;5025233;28;19932;-87
2023/06/21 03:55:18;;;;;;;;;;;;;;;;;;5044763;28;19933;-88
2023/06/21 03:57:45;;;;;;;;;;;;;;;;;;5024951;28;19934;-88
2023/06/21 04:00:14;;;;;;;;;;;;;;;;;;5043005;28;19932;-86
2023/06/21 04:02:51;;;;;;;;;;;;;;;;;;5025663;28;20419;-88
2023/06/21 04:05:20;;;;;;;;;;;;;;;;;;5024891;28;19937;-86
2023/06/21 04:07:48;;;;;;;;;;;;;;;;;;5044865;28;19929;-88
2023/06/21 04:10:16;;;;;;;;;;;;;;;;;;5028849;28;20389;-89
2023/06/21 04:12:49;;;;;;;;;;;;;;;;;;5019369;28;19929;-87
2023/06/21 04:15:16;;;;;;;;;;;;;;;;;;5023160;28;19929;-87
2023/06/21 04:17:44;;;;;;;;;;;;;;;;;;5036082;28;20873;-83
2023/06/21 04:20:16;;;;;;;;;;;;;;;;;;5029646;28;19933;-91
2023/06/21 04:22:49;;;;;;;;;;;;;;;;;;5047634;28;19929;-92
2023/06/21 04:25:18;;;;;;;;;;;;;;;;;;5026325;28;19940;-87
2023/06/21 04:27:46;;;;;;;;;;;;;;;;;;5037075;28;20392;-90
2023/06/21 04:30:15;;;;;;;;;;;;;;;;;;5021860;28;19925;-87
2023/06/21 04:32:45;;;;;;;;;;;;;;;;;;5023968;28;20549;-88
2023/06/21 04:35:14;;;;;;;;;;;;;;;;;;5024527;28;19925;-89
2023/06/21 04:37:44;;;;;;;;;;;;;;;;;;5023463;28;19929;-89
2023/06/21 04:40:12;;;;;;;;;;;;;;;;;;5041279;28;20396;-89
2023/06/21 04:42:42;;;;;;;;;;;;;;;;;;5025985;28;20823;-89
2023/06/21 04:45:10;;;;;;;;;;;;;;;;;;5022549;28;19929;-87
2023/06/21 04:47:37;;;;;;;;;;;;;;;;;;5022378;28;19926;-91
2023/06/21 04:50:05;;;;;;;;;;;;;;;;;;5025532;28;19933;-90
2023/06/21 04:52:33;;;;;;;;;;;;;;;;;;5026268;28;19929;-89
2023/06/21 04:55:01;;;;;;;;;;;;;;;;;;5027175;28;19929;-91
2023/06/21 04:57:29;;;;;;;;;;;;;;;;;;5025789;28;19928;-93
2023/06/21 04:59:56;;;;;;;;;;;;;;;;;;5032792;28;20297;-91
2023/06/21 05:02:24;;;;;;;;;;;;;;;;;;5030562;28;19932;-93
2023/06/21 05:04:52;;;;;;;;;;;;;;;;;;5023852;28;19929;-92
2023/06/21 05:07:19;;;;;;;;;;;;;;;;;;5038650;28;19933;-92
2023/06/21 05:09:47;;;;;;;;;;;;;;;;;;5032606;28;19932;-92
2023/06/21 05:12:19;;;;;;;;;;;;;;;;;;5034416;28;20376;-91
2023/06/21 05:14:47;;;;;;;;;;;;;;;;;;5029130;28;19914;-93
2023/06/21 05:17:16;;;;;;;;;;;;;;;;;;5029087;28;19929;-93
2023/06/21 05:19:45;;;;;;;;;;;;;;;;;;5035515;28;19932;-89
2023/06/21 05:22:14;;;;;;;;;;;;;;;;;;5032263;28;19932;-93
2023/06/21 05:24:42;;;;;;;;;;;;;;;;;;5038836;28;19932;-92
2023/06/21 05:27:10;;;;;;;;;;;;;;;;;;5044720;28;19925;-90
2023/06/21 05:29:38;;;;;;;;;;;;;;;;;;5034987;28;19940;-89
2023/06/21 05:32:05;;;;;;;;;;;;;;;;;;5026283;28;19929;-89
2023/06/21 05:34:33;;;;;;;;;;;;;;;;;;5035634;28;19940;-90
2023/06/21 05:37:01;;;;;;;;;;;;;;;;;;5025051;28;20180;-89
2023/06/21 05:39:28;;;;;;;;;;;;;;;;;;5025613;28;19933;-89
2023/06/21 05:41:56;;;;;;;;;;;;;;;;;;5023803;28;19936;-89
2023/06/21 05:44:23;;;;;;;;;;;;;;;;;;5022427;28;19929;-89
2023/06/21 05:46:51;;;;;;;;;;;;;;;;;;5035473;28;20365;-89
2023/06/21 05:49:19;;;;;;;;;;;;;;;;;;5041178;28;19929;-90
2023/06/21 05:51:46;;;;;;;;;;;;;;;;;;5029680;28;19930;-86
2023/06/21 05:54:14;;;;;;;;;;;;;;;;;;5026958;28;19948;-86
2023/06/21 05:56:41;;;;;;;;;;;;;;;;;;5019177;28;19952;-87
2023/06/21 05:59:09;;;;;;;;;;;;;;;;;;5021840;28;19933;-89
2023/06/21 06:01:36;;;;;;;;;;;;;;;;;;5025699;28;19929;-92
2023/06/21 06:04:04;;;;;;;;;;;;;;;;;;5022093;28;19929;-86
2023/06/21 06:06:36;;;;;;;;;;;;;;;;;;5029443;28;19932;-87
2023/06/21 06:09:04;;;;;;;;;;;;;;;;;;5029288;28;19925;-89
2023/06/21 06:11:32;;;;;;;;;;;;;;;;;;5029849;28;19979;-87
2023/06/21 06:13:59;;;;;;;;;;;;;;;;;;5031368;28;19925;-89
2023/06/21 06:16:27;;;;;;;;;;;;;;;;;;5024171;28;19933;-90
2023/06/21 06:18:54;;;;;;;;;;;;;;;;;;5029267;28;20004;-89
2023/06/21 06:21:22;;;;;;;;;;;;;;;;;;5026010;28;20359;-89
2023/06/21 06:23:49;;;;;;;;;;;;;;;;;;5035403;28;19929;-89
2023/06/21 06:26:17;;;;;;;;;;;;;;;;;;5033703;28;19936;-87
2023/06/21 06:28:44;;;;;;;;;;;;;;;;;;5029103;28;19940;-89
2023/06/21 06:31:13;;;;;;;;;;;;;;;;;;5019575;28;19941;-89
2023/06/21 06:33:40;;;;;;;;;;;;;;;;;;5031724;28;19936;-89
2023/06/21 06:36:08;;;;;;;;;;;;;;;;;;5028446;28;19952;-91
2023/06/21 06:38:36;;;;;;;;;;;;;;;;;;5023024;28;19933;-89
2023/06/21 06:41:04;;;;;;;;;;;;;;;;;;5025480;28;19925;-89
2023/06/21 06:43:31;;;;;;;;;;;;;;;;;;5026899;28;19933;-87
2023/06/21 06:46:01;;;;;;;;;;;;;;;;;;5032938;28;20296;-92
2023/06/21 06:48:30;;;;;;;;;;;;;;;;;;5048688;28;19925;-91
2023/06/21 06:50:57;;;;;;;;;;;;;;;;;;5028815;28;20000;-89
2023/06/21 06:53:25;;;;;;;;;;;;;;;;;;5007644;28;19929;-92
2023/06/21 06:55:53;;;;;;;;;;;;;;;;;;5023095;28;19925;-89
2023/06/21 06:58:21;;;;;;;;;;;;;;;;;;5025993;28;19929;-90
2023/06/21 07:00:48;;;;;;;;;;;;;;;;;;5039953;28;19940;-87
2023/06/21 07:03:18;;;;;;;;;;;;;;;;;;5025690;28;19932;-90
2023/06/21 07:05:46;;;;;;;;;;;;;;;;;;5016385;28;19925;-87
2023/06/21 07:08:17;;;;;;;;;;;;;;;;;;5042351;28;19936;-92
2023/06/21 07:10:45;;;;;;;;;;;;;;;;;;5022695;28;20377;-87
2023/06/21 07:13:12;;;;;;;;;;;;;;;;;;5005117;28;19933;-89
2023/06/21 07:15:40;;;;;;;;;;;;;;;;;;5007300;28;19932;-90
2023/06/21 07:18:08;;;;;;;;;;;;;;;;;;5010495;28;19933;-87
2023/06/21 07:20:35;;;;;;;;;;;;;;;;;;5025548;28;21108;-87
2023/06/21 07:23:03;;;;;;;;;;;;;;;;;;5012882;28;19940;-88
2023/06/21 07:25:31;;;;;;;;;;;;;;;;;;5004112;28;19940;-88
2023/06/21 07:27:58;;;;;;;;;;;;;;;;;;5013319;28;20327;-88
2023/06/21 07:30:26;;;;;;;;;;;;;;;;;;5012410;28;20250;-89
2023/06/21 07:32:53;;;;;;;;;;;;;;;;;;5014478;28;20898;-87
2023/06/21 07:35:21;;;;;;;;;;;;;;;;;;5004860;28;19940;-88
2023/06/21 07:37:48;;;;;;;;;;;;;;;;;;5009335;28;19933;-86
2023/06/21 07:40:16;;;;;;;;;;;;;;;;;;5005086;28;19933;-87
2023/06/21 07:42:44;;;;;;;;;;;;;;;;;;5011268;28;19940;-88
2023/06/21 07:45:11;;;;;;;;;;;;;;;;;;5005085;28;20271;-87
2023/06/21 07:47:40;;;;;;;;;;;;;;;;;;5002120;28;19933;-86
2023/06/21 07:50:13;;;;;;;;;;;;;;;;;;5000003;28;19948;-88
2023/06/21 07:52:40;;;;;;;;;;;;;;;;;;4998056;28;19933;-88
2023/06/21 07:55:10;;;;;;;;;;;;;;;;;;5010948;28;19932;-86
2023/06/21 07:57:43;;;;;;;;;;;;;;;;;;5004684;28;19940;-86
2023/06/21 08:00:11;;;;;;;;;;;;;;;;;;5000649;28;21254;-86
2023/06/21 08:13:35;;;;;;;;;;;;;;;;;;4986503;28;21638;-87
2023/06/21 08:43:43;;;;;;;;;;;;;;;;;;4922373;29;19934;-86
2023/06/21 08:46:11;;;;;;;;;;;;;;;;;;4918951;28;21195;-86
2023/06/21 08:48:56;;;;;;;;;;;;;;;;;;4906450;29;19937;-87
2023/06/21 08:51:24;;;;;;;;;;;;;;;;;;4929368;28;19930;-89
2023/06/21 08:53:51;;;;;;;;;;;;;;;;;;4924530;28;19930;-88
2023/06/21 08:56:22;;;;;;;;;;;;;;;;;;4929964;28;19941;-87
2023/06/21 08:58:50;;;;;;;;;;;;;;;;;;4924954;28;19941;-86
2023/06/21 09:01:17;;;;;;;;;;;;;;;;;;4921377;28;19941;-88
2023/06/21 09:03:45;;;;;;;;;;;;;;;;;;4907528;29;19934;-86
2023/06/21 09:06:13;;;;;;;;;;;;;;;;;;4914849;28;19941;-85
2023/06/21 09:08:40;;;;;;;;;;;;;;;;;;4909217;29;19942;-86
2023/06/21 09:11:08;;;;;;;;;;;;;;;;;;4918374;29;19935;-85
2023/06/21 09:13:35;;;;;;;;;;;;;;;;;;4910888;28;19934;-86
2023/06/21 09:16:03;;;;;;;;;;;;;;;;;;4927201;28;19934;-87
2023/06/21 09:18:37;;;;;;;;;;;;;;;;;;4932853;28;19926;-87
2023/06/21 09:21:04;;;;;;;;;;;;;;;;;;4928638;29;20268;-88
2023/06/21 09:23:32;;;;;;;;;;;;;;;;;;4915396;28;20406;-87
2023/06/21 09:51:24;;;;;;;;;;;;;;;;;;4921391;29;20830;-86
2023/06/21 09:57:57;;;;;;;;;;;;;;;;;;4929074;29;19965;-89
2023/06/21 10:00:26;;;;;;;;;;;;;;;;;;4909997;29;19941;-84
2023/06/21 10:05:44;;;;;;;;;;;;;;;;;;4923770;23;19934;-89
2023/06/21 10:08:13;;;;;;;;;;;;;;;;;;4917884;29;19945;-86
2023/06/21 10:10:40;;;;;;;;;;;;;;;;;;4908025;28;19938;-88
2023/06/21 10:19:21;;;;;;;;;;;;;;;;;;4921539;28;19935;-87
2023/06/21 10:22:05;;;;;;;;;;;;;;;;;;4938047;28;19945;-88
2023/06/21 10:24:39;;;;;;;;;;;;;;;;;;4897414;29;19973;-84
2023/06/21 10:27:06;;;;;;;;;;;;;;;;;;4922322;29;20979;-85
2023/06/21 10:32:24;;;;;;;;;;;;;;;;;;4921692;28;20450;-86
2023/06/21 10:35:31;;;;;;;;;;;;;;;;;;4911997;28;19941;-87
2023/06/21 10:38:01;;;;;;;;;;;;;;;;;;4943076;28;19934;-87
2023/06/21 10:40:28;;;;;;;;;;;;;;;;;;4919249;28;19935;-86
2023/06/21 10:42:58;;;;;;;;;;;;;;;;;;4910204;29;19930;-87
2023/06/21 10:45:27;;;;;;;;;;;;;;;;;;4906406;29;20010;-87
2023/06/21 10:47:54;;;;;;;;;;;;;;;;;;4909322;29;19957;-86
2023/06/21 10:50:22;;;;;;;;;;;;;;;;;;4902999;28;20749;-87
2023/06/21 10:52:49;;;;;;;;;;;;;;;;;;4945570;28;19977;-87
2023/06/21 10:55:19;;;;;;;;;;;;;;;;;;4908599;28;21019;-86
2023/06/21 10:57:47;;;;;;;;;;;;;;;;;;4942479;28;19941;-86
2023/06/21 11:00:15;;;;;;;;;;;;;;;;;;4909570;29;21174;-84
2023/06/21 11:02:47;;;;;;;;;;;;;;;;;;4910225;29;19931;-87
2023/06/21 11:05:20;;;;;;;;;;;;;;;;;;4913344;29;20522;-86
2023/06/21 11:07:51;;;;;;;;;;;;;;;;;;4914079;29;20120;-89
2023/06/21 11:10:18;;;;;;;;;;;;;;;;;;4928464;28;19934;-88
2023/06/21 11:12:46;;;;;;;;;;;;;;;;;;4927233;29;19934;-86
2023/06/21 11:15:13;;;;;;;;;;;;;;;;;;4929259;28;19934;-87
2023/06/21 11:17:41;;;;;;;;;;;;;;;;;;4928393;29;19949;-86
2023/06/21 11:20:09;;;;;;;;;;;;;;;;;;4932769;29;20395;-86
2023/06/21 11:22:36;;;;;;;;;;;;;;;;;;4931980;29;19942;-87
2023/06/21 11:25:04;;;;;;;;;;;;;;;;;;4912413;29;20573;-86
2023/06/21 11:27:32;;;;;;;;;;;;;;;;;;4935479;29;20842;-86
2023/06/21 11:30:09;;;;;;;;;;;;;;;;;;4920306;29;19938;-88
2023/06/21 11:32:38;;;;;;;;;;;;;;;;;;4913419;29;19941;-86
2023/06/21 11:35:07;;;;;;;;;;;;;;;;;;4933903;29;20318;-87
2023/06/21 11:37:35;;;;;;;;;;;;;;;;;;4910299;29;19941;-88
2023/06/21 11:40:03;;;;;;;;;;;;;;;;;;4907021;29;19934;-87
2023/06/21 11:42:32;;;;;;;;;;;;;;;;;;4932054;29;20370;-85
2023/06/21 11:58:08;;;;;;;;;;;;;;;;;;4904720;29;19934;-86
2023/06/21 12:04:19;;;;;;;;;;;;;;;;;;4887521;29;19957;-86
2023/06/21 12:06:46;;;;;;;;;;;;;;;;;;4913833;29;19930;-84
2023/06/21 12:09:14;;;;;;;;;;;;;;;;;;4911433;28;19934;-86
2023/06/21 12:22:02;;;;;;;;;;;;;;;;;;4933380;28;19949;-87
2023/06/21 12:34:45;;;;;;;;;;;;;;;;;;4880993;29;19923;-83
2023/06/21 12:40:31;;;;;;;;;;;;;;;;;;4909238;29;19941;-84
2023/06/21 12:42:59;;;;;;;;;;;;;;;;;;4908023;29;19934;-86
2023/06/21 12:45:27;;;;;;;;;;;;;;;;;;4910951;28;19934;-87
2023/06/21 12:47:54;;;;;;;;;;;;;;;;;;4934502;28;20048;-87
2023/06/21 12:50:22;;;;;;;;;;;;;;;;;;4926482;28;19941;-86
2023/06/21 12:52:51;;;;;;;;;;;;;;;;;;4913168;29;19945;-87
2023/06/21 12:55:18;;;;;;;;;;;;;;;;;;4931669;28;20816;-85
2023/06/21 12:57:46;;;;;;;;;;;;;;;;;;4930050;29;20910;-86
2023/06/21 13:00:13;;;;;;;;;;;;;;;;;;4932123;28;19931;-85
2023/06/21 13:02:41;;;;;;;;;;;;;;;;;;4914834;29;19941;-86
2023/06/21 13:05:08;;;;;;;;;;;;;;;;;;4931896;28;19946;-85
2023/06/21 13:07:36;;;;;;;;;;;;;;;;;;4931815;29;19958;-84
2023/06/21 13:10:08;;;;;;;;;;;;;;;;;;4934023;29;19926;-86
2023/06/21 13:12:38;;;;;;;;;;;;;;;;;;4926329;29;20643;-87
2023/06/21 13:15:05;;;;;;;;;;;;;;;;;;4929087;28;19934;-87
2023/06/21 13:17:33;;;;;;;;;;;;;;;;;;4929585;28;20395;-85
2023/06/21 13:20:00;;;;;;;;;;;;;;;;;;4908056;29;19934;-87
2023/06/21 13:22:28;;;;;;;;;;;;;;;;;;4924523;29;20294;-85
2023/06/21 13:24:55;;;;;;;;;;;;;;;;;;4907666;29;19945;-84
2023/06/21 13:27:25;;;;;;;;;;;;;;;;;;4905861;29;19935;-88
2023/06/21 13:29:52;;;;;;;;;;;;;;;;;;4920673;29;19945;-85
2023/06/21 13:32:20;;;;;;;;;;;;;;;;;;4934219;28;19937;-84
2023/06/21 13:34:48;;;;;;;;;;;;;;;;;;4911780;29;19937;-83
2023/06/21 13:37:15;;;;;;;;;;;;;;;;;;4913342;29;19933;-87
2023/06/21 13:39:43;;;;;;;;;;;;;;;;;;4911176;29;19927;-88
2023/06/21 13:42:11;;;;;;;;;;;;;;;;;;4932018;29;19934;-85
2023/06/21 13:44:43;;;;;;;;;;;;;;;;;;4926293;29;19930;-86
2023/06/21 13:47:11;;;;;;;;;;;;;;;;;;4911103;29;19941;-86
2023/06/21 13:49:38;;;;;;;;;;;;;;;;;;4930452;29;20883;-89
2023/06/21 13:52:06;;;;;;;;;;;;;;;;;;4927103;28;19942;-84
2023/06/21 13:54:33;;;;;;;;;;;;;;;;;;4926815;29;19934;-85
2023/06/21 13:57:03;;;;;;;;;;;;;;;;;;4911449;29;19935;-85
2023/06/21 13:59:34;;;;;;;;;;;;;;;;;;4930671;28;19934;-85
2023/06/21 14:02:02;;;;;;;;;;;;;;;;;;4907887;29;19938;-85
2023/06/21 14:04:30;;;;;;;;;;;;;;;;;;4928293;28;19934;-87
2023/06/21 14:06:57;;;;;;;;;;;;;;;;;;4911029;29;19934;-86
2023/06/21 14:09:25;;;;;;;;;;;;;;;;;;4912259;29;19949;-86
2023/06/21 14:11:52;;;;;;;;;;;;;;;;;;4914074;29;19934;-85
2023/06/21 14:14:20;;;;;;;;;;;;;;;;;;4931883;28;19942;-88
2023/06/21 14:16:52;;;;;;;;;;;;;;;;;;4929042;28;19934;-86
2023/06/21 14:19:20;;;;;;;;;;;;;;;;;;4938521;29;19930;-87
2023/06/21 14:21:48;;;;;;;;;;;;;;;;;;4915925;29;20511;-88
2023/06/21 14:24:15;;;;;;;;;;;;;;;;;;4912020;29;19941;-87
2023/06/21 14:26:48;;;;;;;;;;;;;;;;;;4934780;29;19935;-86
2023/06/21 14:29:18;;;;;;;;;;;;;;;;;;4931640;29;19926;-85
2023/06/21 14:31:46;;;;;;;;;;;;;;;;;;4934914;29;19934;-85
2023/06/21 14:34:13;;;;;;;;;;;;;;;;;;4932824;29;21032;-85
2023/06/21 14:36:41;;;;;;;;;;;;;;;;;;4912118;29;20754;-87
2023/06/21 14:39:09;;;;;;;;;;;;;;;;;;4932293;28;20666;-84
2023/06/21 14:41:36;;;;;;;;;;;;;;;;;;4935863;29;19926;-87
2023/06/21 14:44:04;;;;;;;;;;;;;;;;;;4911997;29;19935;-84
2023/06/21 14:46:31;;;;;;;;;;;;;;;;;;4911662;29;19981;-89
2023/06/21 14:48:59;;;;;;;;;;;;;;;;;;4931517;29;19946;-86
2023/06/21 14:51:26;;;;;;;;;;;;;;;;;;4927668;29;19941;-86
2023/06/21 14:53:54;;;;;;;;;;;;;;;;;;4936852;28;19935;-89
2023/06/21 14:56:27;;;;;;;;;;;;;;;;;;4917557;29;19941;-86
2023/06/21 14:58:56;;;;;;;;;;;;;;;;;;4932673;28;19935;-88
2023/06/21 15:01:24;;;;;;;;;;;;;;;;;;4917333;29;19935;-86
2023/06/21 15:03:51;;;;;;;;;;;;;;;;;;4911043;29;19938;-86
2023/06/21 15:06:19;;;;;;;;;;;;;;;;;;4926161;28;19965;-87
2023/06/21 15:08:47;;;;;;;;;;;;;;;;;;4926907;29;20307;-85
2023/06/21 15:11:17;;;;;;;;;;;;;;;;;;4947244;28;20830;-86
2023/06/21 15:13:45;;;;;;;;;;;;;;;;;;4931064;29;21177;-87
2023/06/21 15:16:17;;;;;;;;;;;;;;;;;;4931198;28;19942;-86
2023/06/21 15:18:45;;;;;;;;;;;;;;;;;;4928777;28;19945;-86
2023/06/21 15:21:12;;;;;;;;;;;;;;;;;;4945793;28;21618;-86
2023/06/21 15:23:43;;;;;;;;;;;;;;;;;;4937136;28;20017;-85
2023/06/21 15:26:16;;;;;;;;;;;;;;;;;;4937181;28;19934;-87
2023/06/21 15:28:43;;;;;;;;;;;;;;;;;;4935888;28;19935;-86
2023/06/21 15:31:11;;;;;;;;;;;;;;;;;;4941505;28;19954;-85
2023/06/21 15:33:38;;;;;;;;;;;;;;;;;;4919293;28;20833;-87
2023/06/21 15:36:06;;;;;;;;;;;;;;;;;;4923973;29;20829;-87
2023/06/21 15:38:34;;;;;;;;;;;;;;;;;;4932149;28;19965;-85
2023/06/21 15:41:06;;;;;;;;;;;;;;;;;;4932980;29;19942;-85
2023/06/21 15:43:35;;;;;;;;;;;;;;;;;;4927572;28;19938;-85
2023/06/21 15:46:02;;;;;;;;;;;;;;;;;;4922609;29;19935;-84
2023/06/21 15:48:30;;;;;;;;;;;;;;;;;;4929574;29;19947;-85
2023/06/21 15:50:57;;;;;;;;;;;;;;;;;;4926493;29;19941;-87
2023/06/21 15:53:25;;;;;;;;;;;;;;;;;;4940316;28;21289;-84
2023/06/21 15:55:53;;;;;;;;;;;;;;;;;;4922118;29;19935;-83
2023/06/21 15:58:20;;;;;;;;;;;;;;;;;;4925880;28;19934;-86
2023/06/21 16:00:48;;;;;;;;;;;;;;;;;;4923934;28;19941;-87
2023/06/21 16:03:15;;;;;;;;;;;;;;;;;;4924461;28;19934;-85
2023/06/21 16:05:43;;;;;;;;;;;;;;;;;;4938906;28;20395;-87
2023/06/21 16:08:11;;;;;;;;;;;;;;;;;;4923863;28;19957;-90
2023/06/21 16:10:38;;;;;;;;;;;;;;;;;;4900359;28;19935;-87
2023/06/21 16:13:06;;;;;;;;;;;;;;;;;;4927155;28;19934;-85
2023/06/21 16:15:33;;;;;;;;;;;;;;;;;;4930550;29;19934;-86
2023/06/21 16:18:06;;;;;;;;;;;;;;;;;;4932128;28;19935;-87
2023/06/21 16:20:34;;;;;;;;;;;;;;;;;;4926551;28;19935;-87
2023/06/21 16:23:01;;;;;;;;;;;;;;;;;;4931673;29;20311;-86
2023/06/21 16:25:36;;;;;;;;;;;;;;;;;;4946151;28;19945;-89
2023/06/21 16:28:04;;;;;;;;;;;;;;;;;;4926782;28;19935;-88
2023/06/21 16:30:31;;;;;;;;;;;;;;;;;;4943104;28;19942;-86
2023/06/21 16:32:59;;;;;;;;;;;;;;;;;;4933135;29;19935;-79
2023/06/21 16:35:26;;;;;;;;;;;;;;;;;;4911356;29;19935;-82
2023/06/21 16:37:59;;;;;;;;;;;;;;;;;;4919870;28;19941;-79
2023/06/21 16:40:26;;;;;;;;;;;;;;;;;;4919802;29;20691;-78
2023/06/21 16:42:59;;;;;;;;;;;;;;;;;;4916115;29;19941;-79
2023/06/21 16:45:31;;;;;;;;;;;;;;;;;;4915857;29;20007;-78
2023/06/21 16:47:59;;;;;;;;;;;;;;;;;;4932675;28;20472;-79
2023/06/21 16:50:26;;;;;;;;;;;;;;;;;;4920203;29;19938;-78
2023/06/21 16:52:54;;;;;;;;;;;;;;;;;;4930623;28;20288;-79
2023/06/21 16:55:22;;;;;;;;;;;;;;;;;;4920471;28;19941;-78
2023/06/21 16:57:54;;;;;;;;;;;;;;;;;;4918329;29;19934;-79
2023/06/21 17:00:27;;;;;;;;;;;;;;;;;;4924991;28;19934;-80
2023/06/21 17:02:55;;;;;;;;;;;;;;;;;;4917232;29;20211;-78
2023/06/21 17:05:28;;;;;;;;;;;;;;;;;;4917875;28;19936;-77
2023/06/21 17:08:00;;;;;;;;;;;;;;;;;;4924745;28;19954;-79
2023/06/21 17:10:28;;;;;;;;;;;;;;;;;;4901020;28;20554;-83
2023/06/21 17:12:59;;;;;;;;;;;;;;;;;;4930123;29;19941;-85
2023/06/21 17:15:27;;;;;;;;;;;;;;;;;;4925306;29;19953;-86
2023/06/21 17:17:59;;;;;;;;;;;;;;;;;;4926728;29;19926;-84
2023/06/21 17:20:27;;;;;;;;;;;;;;;;;;4929909;29;19934;-85
2023/06/21 17:23:00;;;;;;;;;;;;;;;;;;4930903;29;19935;-86
2023/06/21 17:25:27;;;;;;;;;;;;;;;;;;4940173;28;20457;-86
2023/06/21 17:27:55;;;;;;;;;;;;;;;;;;4929396;29;19930;-85
2023/06/21 17:30:22;;;;;;;;;;;;;;;;;;4934248;28;19945;-85
2023/06/21 17:32:50;;;;;;;;;;;;;;;;;;4931489;29;19941;-84
2023/06/21 17:35:18;;;;;;;;;;;;;;;;;;4931087;29;19934;-82
2023/06/21 17:37:48;;;;;;;;;;;;;;;;;;4933074;28;19934;-84
2023/06/21 17:40:15;;;;;;;;;;;;;;;;;;4932242;29;19942;-87
2023/06/21 17:42:48;;;;;;;;;;;;;;;;;;4935694;29;19935;-86
2023/06/21 17:45:16;;;;;;;;;;;;;;;;;;4933952;28;20299;-86
2023/06/21 17:47:43;;;;;;;;;;;;;;;;;;4935273;28;19941;-83
2023/06/21 17:50:12;;;;;;;;;;;;;;;;;;4928034;28;21203;-85
2023/06/21 17:52:39;;;;;;;;;;;;;;;;;;4944442;28;19935;-82
2023/06/21 17:55:07;;;;;;;;;;;;;;;;;;4934948;28;19991;-86
2023/06/21 17:57:34;;;;;;;;;;;;;;;;;;4935891;28;19930;-85
2023/06/21 18:00:04;;;;;;;;;;;;;;;;;;4926757;28;19934;-86
2023/06/21 18:02:39;;;;;;;;;;;;;;;;;;4935606;28;20004;-86
2023/06/21 18:05:11;;;;;;;;;;;;;;;;;;4942831;28;19935;-85
2023/06/21 18:07:39;;;;;;;;;;;;;;;;;;4929417;28;19937;-85
2023/06/21 18:10:07;;;;;;;;;;;;;;;;;;4926085;28;19934;-87
2023/06/21 18:12:34;;;;;;;;;;;;;;;;;;4909298;28;20500;-86
2023/06/21 18:15:03;;;;;;;;;;;;;;;;;;4938949;28;20797;-86
2023/06/21 18:17:32;;;;;;;;;;;;;;;;;;4927661;28;20390;-87
2023/06/21 18:19:59;;;;;;;;;;;;;;;;;;4926990;29;19934;-85
2023/06/21 18:22:27;;;;;;;;;;;;;;;;;;4943302;28;19938;-86
2023/06/21 18:24:55;;;;;;;;;;;;;;;;;;4926732;28;20391;-85
2023/06/21 18:27:22;;;;;;;;;;;;;;;;;;4931280;29;21200;-87
2023/06/21 18:29:50;;;;;;;;;;;;;;;;;;4942616;28;19935;-87
2023/06/21 18:32:17;;;;;;;;;;;;;;;;;;4927040;29;19934;-86
2023/06/21 18:35:03;;;;;;;;;;;;;;;;;;4940269;28;19935;-87
2023/06/21 18:37:30;;;;;;;;;;;;;;;;;;4926733;28;19934;-86
2023/06/21 18:39:58;;;;;;;;;;;;;;;;;;4929038;29;19934;-87
2023/06/21 18:42:44;;;;;;;;;;;;;;;;;;4930682;29;19934;-86
2023/06/21 18:45:11;;;;;;;;;;;;;;;;;;4929677;29;19941;-87
2023/06/21 18:47:47;;;;;;;;;;;;;;;;;;4932820;28;20500;-87
2023/06/21 18:50:15;;;;;;;;;;;;;;;;;;4924448;29;19937;-86
2023/06/21 18:52:42;;;;;;;;;;;;;;;;;;4934188;28;19945;-87
2023/06/21 18:55:11;;;;;;;;;;;;;;;;;;4928635;28;19935;-87
2023/06/21 18:57:38;;;;;;;;;;;;;;;;;;4933175;29;20422;-87